Time;durP1;ratioP1;P1;durP2;ratioP2;P2;SDS_P1;SDS_P2;PMS_P1;PMS_P2;Temp;Humidity;BMP_temperature;BMP_pressure;BME280_temperature;BME280_humidity;BME280_pressure;Samples;Min_cycle;Max_cycle;Signal;HPM_P1;HPM_P2
2022/10/05 00:02:24;;;;;;;7.18;3.97;;;15.50;99.90;;;;;;5035586;28;20090;-73
2022/10/05 00:04:55;;;;;;;6.97;3.58;;;15.60;99.90;;;;;;5020125;28;20078;-73
2022/10/05 00:07:23;;;;;;;5.53;3.47;;;15.60;99.90;;;;;;5037642;28;20067;-73
2022/10/05 00:09:55;;;;;;;6.10;3.53;;;15.60;99.90;;;;;;5031107;28;20189;-75
2022/10/05 00:12:22;;;;;;;7.10;4.20;;;15.60;99.90;;;;;;5037310;28;20119;-73
2022/10/05 00:14:54;;;;;;;6.95;3.10;;;15.60;99.90;;;;;;5042009;28;20139;-72
2022/10/05 00:17:22;;;;;;;10.60;3.90;;;15.60;99.90;;;;;;5019744;28;20037;-73
2022/10/05 00:19:51;;;;;;;6.75;3.47;;;15.60;99.90;;;;;;5033168;28;20513;-73
2022/10/05 00:22:37;;;;;;;9.15;3.45;;;15.60;99.90;;;;;;5035940;28;20111;-72
2022/10/05 00:25:18;;;;;;;10.45;4.03;;;15.60;99.90;;;;;;5039120;28;20510;-73
2022/10/05 00:27:50;;;;;;;8.30;3.65;;;15.60;99.90;;;;;;5036374;28;20110;-72
2022/10/05 00:30:17;;;;;;;7.55;3.78;;;15.60;99.90;;;;;;5031147;28;20044;-74
2022/10/05 00:32:44;;;;;;;7.47;3.70;;;15.60;99.90;;;;;;5036776;28;20071;-73
2022/10/05 00:35:10;;;;;;;;;;;15.60;99.90;;;;;;5040992;28;20252;-73
2022/10/05 00:37:36;;;;;;;7.32;3.15;;;15.50;99.90;;;;;;5042789;28;19924;-72
2022/10/05 00:40:28;;;;;;;7.07;3.25;;;15.50;99.90;;;;;;5033771;28;20037;-72
2022/10/05 00:43:01;;;;;;;8.98;3.10;;;15.50;99.90;;;;;;5033863;28;20578;-72
2022/10/05 00:45:34;;;;;;;6.78;3.28;;;15.50;99.90;;;;;;5033718;28;20084;-73
2022/10/05 00:48:18;;;;;;;5.65;3.03;;;15.50;99.90;;;;;;5039864;28;20037;-73
2022/10/05 00:51:21;;;;;;;4.60;2.90;;;15.50;99.90;;;;;;5044177;28;20052;-73
2022/10/05 00:53:58;;;;;;;8.73;3.38;;;15.50;99.90;;;;;;5027495;28;20124;-73
2022/10/05 00:56:53;;;;;;;5.15;3.20;;;15.50;99.90;;;;;;5030809;28;20315;-73
2022/10/05 00:59:50;;;;;;;9.82;3.80;;;15.50;99.90;;;;;;5010541;28;20041;-72
2022/10/05 01:02:34;;;;;;;6.55;3.05;;;15.50;99.90;;;;;;5030218;28;20159;-72
2022/10/05 01:05:12;;;;;;;5.45;3.08;;;15.50;99.90;;;;;;5031784;28;20120;-73
2022/10/05 01:07:58;;;;;;;4.82;3.22;;;15.40;99.90;;;;;;5036532;28;20049;-73
2022/10/05 01:10:40;;;;;;;5.45;2.80;;;15.50;99.90;;;;;;5036221;28;20045;-73
2022/10/05 01:13:18;;;;;;;5.72;2.75;;;15.40;99.90;;;;;;5038119;28;20072;-72
2022/10/05 01:15:56;;;;;;;6.50;2.35;;;15.40;99.90;;;;;;5038099;28;20057;-74
2022/10/05 01:18:30;;;;;;;3.95;2.47;;;15.40;99.90;;;;;;5025648;28;20289;-73
2022/10/05 01:21:11;;;;;;;4.45;2.75;;;15.50;99.90;;;;;;5041817;28;20048;-72
2022/10/05 01:23:52;;;;;;;8.18;3.15;;;15.40;99.90;;;;;;5039744;28;20497;-74
2022/10/05 01:26:36;;;;;;;6.55;3.15;;;15.40;99.90;;;;;;5042589;28;20037;-73
2022/10/05 01:29:02;;;;;;;6.32;2.80;;;15.50;99.90;;;;;;5045145;28;20116;-73
2022/10/05 01:31:55;;;;;;;4.93;2.50;;;15.40;99.90;;;;;;5034289;28;20097;-73
2022/10/05 01:34:36;;;;;;;4.68;2.78;;;15.40;99.90;;;;;;5036504;28;20294;-71
2022/10/05 01:37:16;;;;;;;7.88;3.13;;;15.40;99.90;;;;;;5034908;28;20131;-72
2022/10/05 01:40:30;;;;;;;4.80;2.88;;;15.30;99.90;;;;;;5027818;28;20103;-73
2022/10/05 01:43:17;;;;;;;5.53;2.95;;;15.40;99.90;;;;;;5014016;28;20491;-73
2022/10/05 01:46:09;;;;;;;6.75;3.63;;;15.40;99.90;;;;;;5035932;28;20357;-73
2022/10/05 01:48:47;;;;;;;7.28;3.60;;;15.40;99.90;;;;;;5036877;28;20041;-72
2022/10/05 01:51:29;;;;;;;5.68;2.83;;;15.30;99.90;;;;;;5044200;28;20510;-72
2022/10/05 01:54:21;;;;;;;6.28;3.15;;;15.30;99.90;;;;;;5041497;28;20044;-73
2022/10/05 01:57:14;;;;;;;6.32;2.85;;;15.30;99.90;;;;;;5016753;28;20041;-74
2022/10/05 02:00:02;;;;;;;7.90;4.07;;;15.30;99.90;;;;;;5042520;28;20041;-73
2022/10/05 02:02:30;;;;;;;;;;;15.30;99.90;;;;;;5036785;28;20032;-74
2022/10/05 02:05:19;;;;;;;5.80;3.22;;;15.30;99.90;;;;;;5051854;28;20304;-73
2022/10/05 02:07:53;;;;;;;5.43;3.22;;;15.20;99.90;;;;;;5041264;28;20037;-73
2022/10/05 02:10:36;;;;;;;7.85;3.85;;;15.30;99.90;;;;;;5039053;28;20033;-72
2022/10/05 02:13:10;;;;;;;7.35;3.90;;;15.30;99.90;;;;;;5039353;28;20043;-73
2022/10/05 02:15:42;;;;;;;7.05;3.85;;;15.30;99.90;;;;;;5045164;28;20063;-73
2022/10/05 02:18:18;;;;;;;5.95;3.55;;;15.30;99.90;;;;;;5035827;28;20041;-72
2022/10/05 02:20:45;;;;;;;6.30;3.67;;;15.30;99.90;;;;;;5059843;22;20053;-78
2022/10/05 02:23:21;;;;;;;7.53;3.20;;;15.30;99.90;;;;;;5047517;28;20072;-77
2022/10/05 02:25:50;;;;;;;10.82;3.95;;;15.30;99.90;;;;;;5033677;28;20368;-78
2022/10/05 02:28:30;;;;;;;6.50;3.95;;;15.30;99.90;;;;;;5039329;28;20298;-78
2022/10/05 02:31:24;;;;;;;9.30;4.07;;;15.30;99.90;;;;;;5039762;28;20049;-78
2022/10/05 02:33:50;;;;;;;7.80;3.70;;;15.30;99.90;;;;;;5038633;28;20227;-78
2022/10/05 02:36:30;;;;;;;8.45;3.58;;;15.30;99.90;;;;;;5037453;28;20246;-77
2022/10/05 02:39:33;;;;;;;6.75;3.65;;;15.30;99.90;;;;;;5043231;28;20539;-77
2022/10/05 02:42:40;;;;;;;7.63;3.85;;;15.30;99.90;;;;;;5037211;28;20086;-78
2022/10/05 02:45:31;;;;;;;6.93;3.63;;;15.30;99.90;;;;;;5017986;28;20532;-77
2022/10/05 02:48:23;;;;;;;7.18;3.55;;;15.30;99.90;;;;;;5044107;28;20522;-78
2022/10/05 02:51:42;;;;;;;9.00;3.38;;;15.30;99.90;;;;;;5036811;28;20041;-77
2022/10/05 02:54:33;;;;;;;5.80;3.33;;;15.30;99.90;;;;;;5014300;28;20077;-77
2022/10/05 02:57:13;;;;;;;8.38;3.47;;;15.30;99.90;;;;;;5034754;28;20487;-77
2022/10/05 02:59:44;;;;;;;6.03;2.90;;;15.30;99.90;;;;;;5039193;28;20052;-77
2022/10/05 03:02:40;;;;;;;9.32;3.65;;;15.30;99.90;;;;;;5036202;28;20037;-78
2022/10/05 03:05:36;;;;;;;6.13;3.58;;;15.30;99.90;;;;;;5036561;28;20048;-78
2022/10/05 03:08:14;;;;;;;7.97;3.17;;;15.30;99.90;;;;;;5042045;28;20124;-78
2022/10/05 03:10:53;;;;;;;5.43;2.90;;;15.30;99.90;;;;;;5047785;28;20119;-77
2022/10/05 03:13:19;;;;;;;5.40;3.03;;;15.30;99.90;;;;;;5039070;28;20068;-77
2022/10/05 03:15:53;;;;;;;5.20;3.03;;;15.30;99.90;;;;;;5035836;28;20063;-77
2022/10/05 03:18:42;;;;;;;7.40;2.75;;;15.30;99.90;;;;;;5042504;28;20128;-77
2022/10/05 03:21:17;;;;;;;6.20;3.42;;;15.30;99.90;;;;;;5033901;28;20254;-77
2022/10/05 03:23:52;;;;;;;5.43;2.67;;;15.30;99.90;;;;;;5047731;28;20200;-81
2022/10/05 03:26:32;;;;;;;5.43;3.30;;;15.30;99.90;;;;;;5042247;28;20139;-84
2022/10/05 03:29:02;;;;;;;7.07;2.88;;;15.30;99.90;;;;;;5043743;28;20120;-79
2022/10/05 03:31:56;;;;;;;5.15;2.85;;;15.30;99.90;;;;;;5052212;28;20040;-80
2022/10/05 03:34:30;;;;;;;6.03;2.63;;;15.30;99.90;;;;;;5034698;28;20053;-77
2022/10/05 03:37:08;;;;;;;5.45;2.63;;;15.30;99.90;;;;;;5036958;28;20208;-77
2022/10/05 03:39:50;;;;;;;4.85;2.80;;;15.30;99.90;;;;;;5030033;28;20041;-78
2022/10/05 03:42:51;;;;;;;7.00;2.90;;;15.30;99.90;;;;;;5033464;28;20047;-78
2022/10/05 03:45:35;;;;;;;4.70;2.85;;;15.30;99.90;;;;;;5045546;28;20047;-78
2022/10/05 03:48:47;;;;;;;4.55;2.65;;;15.30;99.90;;;;;;5043187;28;20108;-78
2022/10/05 03:51:35;;;;;;;4.82;2.63;;;15.30;99.90;;;;;;5041817;28;20095;-78
2022/10/05 03:54:22;;;;;;;5.82;2.72;;;15.20;99.90;;;;;;5048023;28;20402;-78
2022/10/05 03:57:06;;;;;;;;;;;15.20;99.90;;;;;;5042938;28;21074;-78
2022/10/05 03:59:55;;;;;;;7.93;2.13;;;15.20;99.90;;;;;;5043347;28;20381;-78
2022/10/05 04:02:29;;;;;;;6.03;2.60;;;15.20;99.90;;;;;;5033707;28;20047;-78
2022/10/05 04:05:11;;;;;;;7.43;2.70;;;15.20;99.90;;;;;;5042818;28;20062;-78
2022/10/05 04:08:03;;;;;;;7.43;2.60;;;15.20;99.90;;;;;;5046426;28;20065;-78
2022/10/05 04:10:38;;;;;;;4.05;2.20;;;15.20;99.90;;;;;;5039098;28;20057;-78
2022/10/05 04:13:12;;;;;;;4.90;2.53;;;15.20;99.90;;;;;;5042244;28;20045;-78
2022/10/05 04:15:57;;;;;;;6.80;2.85;;;15.20;99.90;;;;;;5043707;28;20430;-78
2022/10/05 04:18:42;;;;;;;7.47;2.67;;;15.20;99.90;;;;;;5040480;28;20033;-78
2022/10/05 04:21:20;;;;;;;6.35;2.88;;;15.20;99.90;;;;;;5041521;28;20544;-78
2022/10/05 04:24:15;;;;;;;5.43;2.65;;;15.20;99.90;;;;;;5046565;28;20415;-78
2022/10/05 04:26:55;;;;;;;4.75;2.50;;;15.20;99.90;;;;;;5038741;28;20072;-79
2022/10/05 04:29:44;;;;;;;4.80;2.40;;;15.20;99.90;;;;;;5040925;28;20079;-78
2022/10/05 04:32:32;;;;;;;7.72;2.58;;;15.20;99.90;;;;;;5043466;28;20036;-78
2022/10/05 04:35:16;;;;;;;;;;;15.20;99.90;;;;;;5045375;28;20032;-78
2022/10/05 04:38:19;;;;;;;4.97;2.50;;;15.10;99.90;;;;;;5041269;28;19929;-78
2022/10/05 04:41:06;;;;;;;4.60;2.58;;;15.10;99.90;;;;;;5044077;28;20029;-78
2022/10/05 04:43:31;;;;;;;4.38;2.63;;;15.10;99.90;;;;;;5044526;28;20138;-78
2022/10/05 04:46:22;;;;;;;6.00;2.73;;;15.10;99.90;;;;;;5041182;28;20470;-78
2022/10/05 04:48:50;;;;;;;5.15;2.60;;;15.10;99.90;;;;;;5040530;28;20052;-78
2022/10/05 04:51:41;;;;;;;6.45;3.05;;;15.10;99.90;;;;;;5048120;28;20369;-77
2022/10/05 04:54:28;;;;;;;5.78;3.17;;;15.10;99.90;;;;;;5039599;28;20133;-78
2022/10/05 04:56:58;;;;;;;7.20;3.45;;;15.10;99.90;;;;;;5045637;28;20104;-78
2022/10/05 05:00:01;;;;;;;7.78;3.95;;;15.10;99.90;;;;;;5047671;28;20037;-78
2022/10/05 05:02:55;;;;;;;6.55;3.33;;;15.10;99.90;;;;;;5041716;28;20457;-79
2022/10/05 05:05:21;;;;;;;8.13;3.28;;;15.10;99.90;;;;;;5037880;28;20242;-78
2022/10/05 05:08:04;;;;;;;11.15;3.40;;;15.10;99.90;;;;;;5046190;28;20132;-78
2022/10/05 05:10:33;;;;;;;7.55;3.90;;;15.10;99.90;;;;;;5051783;28;20056;-78
2022/10/05 05:13:11;;;;;;;5.95;3.60;;;15.10;99.90;;;;;;5048831;28;20092;-77
2022/10/05 05:15:42;;;;;;;7.20;4.10;;;15.00;99.90;;;;;;5049306;28;20134;-77
2022/10/05 05:18:38;;;;;;;8.02;3.78;;;15.10;99.90;;;;;;5049924;28;20340;-78
2022/10/05 05:21:15;;;;;;;8.00;3.78;;;15.10;99.90;;;;;;5036651;28;20057;-78
2022/10/05 05:23:57;;;;;;;6.70;3.65;;;15.10;99.90;;;;;;5051173;28;20033;-78
2022/10/05 05:26:28;;;;;;;7.45;3.65;;;15.10;99.90;;;;;;5047124;28;20041;-77
2022/10/05 05:29:16;;;;;;;11.65;4.22;;;15.10;99.90;;;;;;5047142;28;20073;-78
2022/10/05 05:31:52;;;;;;;10.70;4.07;;;15.10;99.90;;;;;;5039595;28;20033;-77
2022/10/05 05:34:42;;;;;;;6.15;3.67;;;15.00;99.90;;;;;;5044285;28;20060;-77
2022/10/05 05:37:21;;;;;;;7.03;3.60;;;15.00;99.90;;;;;;5040508;28;20330;-78
2022/10/05 05:39:53;;;;;;;6.20;3.58;;;15.10;99.90;;;;;;5040998;28;20041;-77
2022/10/05 05:42:45;;;;;;;8.27;3.85;;;15.10;99.90;;;;;;5048054;28;20065;-79
2022/10/05 05:45:35;;;;;;;7.95;4.10;;;15.00;99.90;;;;;;5058016;28;20056;-80
2022/10/05 05:48:07;;;;;;;6.22;3.28;;;15.00;99.90;;;;;;5052043;28;20045;-85
2022/10/05 05:50:55;;;;;;;7.80;3.65;;;15.00;99.90;;;;;;5033178;28;20150;-83
2022/10/05 05:53:28;;;;;;;8.00;3.83;;;15.10;99.90;;;;;;5041471;28;20497;-80
2022/10/05 05:56:19;;;;;;;4.80;2.80;;;15.00;99.90;;;;;;5036279;28;20053;-83
2022/10/05 05:58:57;;;;;;;7.57;3.28;;;15.00;99.90;;;;;;5044051;28;20371;-82
2022/10/05 06:01:32;;;;;;;5.38;3.65;;;15.00;99.90;;;;;;5049598;28;20081;-79
2022/10/05 06:04:00;;;;;;;7.13;3.45;;;15.00;99.90;;;;;;5048138;28;20051;-78
2022/10/05 06:06:30;;;;;;;5.93;3.17;;;15.00;99.90;;;;;;5045904;28;20524;-78
2022/10/05 06:09:03;;;;;;;7.07;3.60;;;15.00;99.90;;;;;;5038199;28;20041;-78
2022/10/05 06:11:54;;;;;;;7.30;3.97;;;15.00;99.90;;;;;;5026936;28;20060;-78
2022/10/05 06:14:43;;;;;;;5.20;3.20;;;15.00;99.90;;;;;;5042425;28;20041;-79
2022/10/05 06:17:17;;;;;;;8.60;3.20;;;15.00;99.90;;;;;;5046350;28;20089;-82
2022/10/05 06:19:45;;;;;;;5.97;3.20;;;15.00;99.90;;;;;;5049460;28;20041;-81
2022/10/05 06:22:37;;;;;;;5.57;3.15;;;15.00;99.90;;;;;;5044694;28;20033;-78
2022/10/05 06:25:12;;;;;;;5.78;3.05;;;15.00;99.90;;;;;;5045058;28;20072;-78
2022/10/05 06:28:17;;;;;;;6.95;3.25;;;15.00;99.90;;;;;;5041811;28;20044;-79
2022/10/05 06:30:57;;;;;;;6.15;3.40;;;15.00;99.90;;;;;;5038581;28;20053;-77
2022/10/05 06:33:53;;;;;;;8.40;3.65;;;15.00;99.90;;;;;;5037728;28;20131;-79
2022/10/05 06:36:54;;;;;;;5.78;3.03;;;15.00;99.90;;;;;;5032291;28;20073;-78
2022/10/05 06:39:44;;;;;;;5.32;3.08;;;15.00;99.90;;;;;;5040275;28;20344;-78
2022/10/05 06:42:33;;;;;;;4.63;2.70;;;15.00;99.90;;;;;;5042875;28;20375;-78
2022/10/05 06:45:26;;;;;;;4.80;3.25;;;15.10;99.90;;;;;;5035631;28;20061;-78
2022/10/05 06:48:24;;;;;;;6.82;3.03;;;15.10;99.90;;;;;;5046639;28;20505;-78
2022/10/05 06:50:54;;;;;;;;;;;15.10;99.90;;;;;;5046798;28;20119;-79
2022/10/05 06:53:20;;;;;;;5.78;3.58;;;15.10;99.90;;;;;;5048156;28;19982;-78
2022/10/05 06:55:54;;;;;;;4.70;2.60;;;15.00;99.90;;;;;;5047543;28;20049;-79
2022/10/05 06:58:34;;;;;;;5.70;3.22;;;15.10;99.90;;;;;;5047448;28;20090;-79
2022/10/05 07:01:25;;;;;;;8.60;4.10;;;15.10;99.90;;;;;;5040384;28;20071;-79
2022/10/05 07:03:59;;;;;;;7.22;2.97;;;15.10;99.90;;;;;;5045920;28;20218;-78
2022/10/05 07:06:36;;;;;;;5.82;2.75;;;15.00;99.90;;;;;;5047589;28;20137;-79
2022/10/05 07:09:14;;;;;;;5.70;2.83;;;15.10;99.90;;;;;;5044574;28;20554;-79
2022/10/05 07:11:51;;;;;;;5.13;2.35;;;15.10;99.90;;;;;;5044661;28;20132;-78
2022/10/05 07:14:43;;;;;;;6.85;2.80;;;15.10;99.90;;;;;;5045304;28;20128;-78
2022/10/05 07:17:33;;;;;;;5.50;2.42;;;15.00;99.90;;;;;;5034180;28;20049;-79
2022/10/05 07:20:14;;;;;;;5.68;2.92;;;15.10;99.90;;;;;;5035546;28;20071;-78
2022/10/05 07:23:15;;;;;;;4.43;3.05;;;15.10;99.90;;;;;;5042996;28;20369;-78
2022/10/05 07:26:14;;;;;;;7.93;2.20;;;15.10;99.90;;;;;;5045048;28;20052;-79
2022/10/05 07:28:45;;;;;;;4.32;2.35;;;15.10;99.90;;;;;;5040992;28;20074;-78
2022/10/05 07:31:21;;;;;;;4.65;2.60;;;15.10;99.90;;;;;;5026620;28;20049;-78
2022/10/05 07:34:21;;;;;;;4.60;2.05;;;15.20;99.90;;;;;;5043620;28;20464;-78
2022/10/05 07:40:07;;;;;;;5.30;2.27;;;15.20;99.90;;;;;;5044481;28;20049;-78
2022/10/05 07:42:58;;;;;;;3.58;2.30;;;15.20;99.90;;;;;;5046740;28;20544;-78
2022/10/05 07:45:50;;;;;;;3.55;1.98;;;15.20;99.90;;;;;;5049537;28;20075;-79
2022/10/05 07:48:25;;;;;;;4.55;1.63;;;15.20;99.90;;;;;;5039883;28;20036;-78
2022/10/05 07:51:21;;;;;;;3.30;1.40;;;15.30;99.90;;;;;;5046013;28;20124;-79
2022/10/05 07:54:17;;;;;;;3.67;1.90;;;15.30;99.90;;;;;;5045899;28;20036;-78
2022/10/05 07:56:47;;;;;;;5.45;2.00;;;15.30;99.90;;;;;;5041166;28;20156;-79
2022/10/05 07:59:39;;;;;;;6.70;2.47;;;15.30;99.90;;;;;;5045467;28;20467;-79
2022/10/05 08:02:27;;;;;;;4.05;2.00;;;15.30;99.90;;;;;;5036782;28;20049;-75
2022/10/05 08:05:08;;;;;;;3.78;2.25;;;15.30;99.90;;;;;;5045605;28;20767;-76
2022/10/05 08:07:35;;;;;;;4.00;2.08;;;15.40;99.90;;;;;;5045282;28;20041;-77
2022/10/05 08:10:19;;;;;;;4.75;2.58;;;15.30;99.90;;;;;;5046462;28;20041;-76
2022/10/05 08:13:06;;;;;;;6.35;3.40;;;15.40;99.90;;;;;;5043634;28;20049;-76
2022/10/05 08:15:44;;;;;;;5.57;2.40;;;15.40;99.90;;;;;;5043595;28;20045;-77
2022/10/05 08:18:17;;;;;;;5.32;2.67;;;15.40;99.90;;;;;;5043926;28;20428;-77
2022/10/05 08:20:50;;;;;;;6.18;2.90;;;15.50;99.90;;;;;;5062647;22;20041;-73
2022/10/05 08:23:25;;;;;;;7.50;3.15;;;15.50;99.90;;;;;;5042627;28;20124;-74
2022/10/05 08:26:31;;;;;;;5.90;3.03;;;15.50;99.90;;;;;;5041666;28;20498;-74
2022/10/05 08:29:18;;;;;;;7.55;2.53;;;15.60;99.90;;;;;;5023460;28;20037;-75
2022/10/05 08:31:48;;;;;;;7.22;3.40;;;15.60;99.90;;;;;;5032554;28;20449;-72
2022/10/05 08:34:26;;;;;;;6.32;2.83;;;15.70;99.90;;;;;;5031424;28;20072;-73
2022/10/05 08:37:02;;;;;;;7.82;3.35;;;15.70;99.90;;;;;;5026692;28;20128;-73
2022/10/05 08:39:57;;;;;;;7.43;2.92;;;15.70;99.90;;;;;;5043350;28;20244;-74
2022/10/05 08:42:28;;;;;;;6.50;2.85;;;15.70;99.90;;;;;;5034090;28;20052;-74
2022/10/05 08:45:28;;;;;;;6.82;3.05;;;15.80;99.90;;;;;;5043995;28;20526;-73
2022/10/05 08:48:12;;;;;;;6.97;3.17;;;15.90;99.90;;;;;;5041564;28;20052;-74
2022/10/05 08:51:09;;;;;;;7.85;3.10;;;15.90;99.90;;;;;;5023576;28;20045;-74
2022/10/05 08:54:00;;;;;;;7.55;3.08;;;15.90;99.90;;;;;;5043912;28;20649;-74
2022/10/05 08:56:32;;;;;;;7.63;2.20;;;16.00;99.90;;;;;;5038856;28;20061;-73
2022/10/05 08:59:10;;;;;;;5.72;2.15;;;16.00;99.90;;;;;;5039854;28;20414;-73
2022/10/05 09:02:13;;;;;;;5.00;2.00;;;16.00;99.90;;;;;;5032897;28;20099;-73
2022/10/05 09:04:42;;;;;;;5.75;2.00;;;16.10;99.90;;;;;;5040174;28;20407;-74
2022/10/05 09:07:20;;;;;;;3.97;1.65;;;16.20;99.90;;;;;;5017259;28;20044;-72
2022/10/05 09:10:17;;;;;;;4.78;1.98;;;16.20;99.90;;;;;;5039189;28;20052;-72
2022/10/05 09:13:24;;;;;;;3.85;1.85;;;16.20;99.90;;;;;;5035438;28;20067;-72
2022/10/05 09:15:52;;;;;;;7.78;2.42;;;16.30;99.90;;;;;;4979801;28;20471;-73
2022/10/05 09:18:52;;;;;;;5.75;2.08;;;16.40;99.90;;;;;;5024240;28;20049;-74
2022/10/05 09:21:50;;;;;;;3.08;1.63;;;16.40;99.90;;;;;;5036081;28;20648;-73
2022/10/05 09:24:44;;;;;;;7.07;1.73;;;16.40;99.90;;;;;;5040948;28;20072;-73
2022/10/05 09:27:16;;;;;;;4.07;1.73;;;16.40;99.90;;;;;;5032218;28;20029;-73
2022/10/05 09:30:03;;;;;;;3.42;1.90;;;16.50;99.90;;;;;;5018151;28;20128;-73
2022/10/05 09:33:07;;;;;;;6.43;2.03;;;16.40;99.90;;;;;;5034629;28;20399;-73
2022/10/05 09:36:08;;;;;;;4.00;1.75;;;16.50;99.90;;;;;;5026286;28;20590;-75
2022/10/05 09:39:19;;;;;;;5.03;1.77;;;16.50;99.90;;;;;;5047483;28;20147;-73
2022/10/05 09:42:03;;;;;;;4.22;2.28;;;16.60;99.90;;;;;;5045547;28;20406;-74
2022/10/05 09:44:55;;;;;;;4.47;1.98;;;16.60;99.90;;;;;;5046641;28;20049;-75
2022/10/05 09:47:53;;;;;;;4.80;1.95;;;16.60;99.90;;;;;;5030953;28;20033;-74
2022/10/05 09:50:39;;;;;;;3.45;1.70;;;16.60;99.90;;;;;;5043846;28;20037;-74
2022/10/05 09:53:33;;;;;;;2.85;1.67;;;16.70;99.90;;;;;;5041364;28;20399;-75
2022/10/05 09:56:08;;;;;;;4.80;1.77;;;16.70;99.90;;;;;;5029266;28;20102;-75
2022/10/05 09:58:40;;;;;;;2.40;1.60;;;16.80;99.90;;;;;;5039193;28;20399;-74
2022/10/05 10:01:33;;;;;;;4.63;2.10;;;16.80;99.90;;;;;;5046895;28;20037;-74
2022/10/05 10:04:24;;;;;;;2.88;1.40;;;16.90;99.90;;;;;;5039189;28;20411;-74
2022/10/05 10:07:03;;;;;;;2.95;1.38;;;16.90;99.90;;;;;;5027355;28;20578;-75
2022/10/05 10:09:41;;;;;;;3.53;1.40;;;16.90;99.90;;;;;;5041439;28;20106;-74
2022/10/05 10:12:22;;;;;;;2.60;1.50;;;16.90;99.90;;;;;;5041266;28;20497;-74
2022/10/05 10:15:09;;;;;;;2.13;0.90;;;16.90;99.90;;;;;;5047166;28;20041;-74
2022/10/05 10:17:43;;;;;;;2.85;1.13;;;16.90;99.90;;;;;;5043266;28;20038;-74
2022/10/05 10:20:37;;;;;;;5.30;1.45;;;16.90;99.90;;;;;;5050109;28;20060;-72
2022/10/05 10:23:21;;;;;;;2.75;1.10;;;16.90;99.90;;;;;;5041018;28;20067;-73
2022/10/05 10:26:05;;;;;;;1.70;1.20;;;16.80;99.90;;;;;;5044639;28;20628;-72
2022/10/05 10:28:55;;;;;;;2.53;1.20;;;16.70;99.90;;;;;;5038520;28;20469;-72
2022/10/05 10:31:21;;;;;;;4.75;1.45;;;16.70;99.90;;;;;;5032442;28;20056;-72
2022/10/05 10:34:04;;;;;;;4.20;1.60;;;16.70;99.90;;;;;;5044586;28;20041;-72
2022/10/05 10:37:01;;;;;;;3.47;1.42;;;16.70;99.90;;;;;;5045354;28;20609;-72
2022/10/05 10:40:05;;;;;;;1.95;1.05;;;16.60;99.90;;;;;;5039618;28;20136;-72
2022/10/05 10:42:36;;;;;;;2.58;1.27;;;16.60;99.90;;;;;;5043264;28;20037;-73
2022/10/05 10:45:19;;;;;;;2.95;1.30;;;16.60;99.90;;;;;;5043745;28;20405;-73
2022/10/05 10:47:53;;;;;;;2.42;1.40;;;16.60;99.90;;;;;;5030981;28;20524;-73
2022/10/05 10:50:37;;;;;;;2.33;1.52;;;16.60;99.90;;;;;;5043193;28;20513;-74
2022/10/05 10:53:40;;;;;;;3.95;1.60;;;16.70;99.90;;;;;;5039316;28;20390;-73
2022/10/05 10:56:44;;;;;;;1.90;1.30;;;16.60;99.90;;;;;;5044363;28;20127;-73
2022/10/05 10:59:28;;;;;;;4.30;1.65;;;16.60;99.90;;;;;;5040574;28;20064;-73
2022/10/05 11:02:13;;;;;;;2.53;1.67;;;16.60;99.90;;;;;;5034520;28;20037;-72
2022/10/05 11:04:41;;;;;;;4.15;1.52;;;16.60;99.90;;;;;;5045478;28;20065;-72
2022/10/05 11:07:31;;;;;;;1.90;1.38;;;16.60;99.90;;;;;;5045545;28;20043;-73
2022/10/05 11:10:33;;;;;;;3.67;1.50;;;16.60;99.90;;;;;;5042162;28;20045;-73
2022/10/05 11:13:11;;;;;;;3.88;1.20;;;16.50;99.90;;;;;;5043403;28;20037;-72
2022/10/05 11:15:49;;;;;;;3.28;1.50;;;16.50;99.90;;;;;;5043075;28;20056;-73
2022/10/05 11:18:31;;;;;;;5.07;1.42;;;16.50;99.90;;;;;;5039870;28;20041;-73
2022/10/05 11:21:20;;;;;;;1.98;1.13;;;16.50;99.90;;;;;;5027650;28;20564;-72
2022/10/05 11:23:46;;;;;;;1.90;1.20;;;16.50;99.90;;;;;;5043615;28;20881;-73
2022/10/05 11:26:58;;;;;;;4.18;1.35;;;16.50;99.90;;;;;;5045440;28;20132;-73
2022/10/05 11:29:33;;;;;;;2.38;1.27;;;16.50;99.90;;;;;;5040325;28;20061;-72
2022/10/05 11:32:26;;;;;;;1.98;1.05;;;16.40;99.90;;;;;;5042381;28;20106;-73
2022/10/05 11:35:30;;;;;;;2.63;1.15;;;16.40;99.90;;;;;;5032007;28;20416;-73
2022/10/05 11:38:28;;;;;;;2.10;1.00;;;16.50;99.90;;;;;;5035274;28;20036;-74
2022/10/05 11:41:31;;;;;;;4.80;1.00;;;16.50;99.90;;;;;;5039154;28;20435;-73
2022/10/05 11:44:31;;;;;;;3.58;1.60;;;16.50;99.90;;;;;;5013728;28;20057;-73
2022/10/05 11:47:12;;;;;;;2.78;0.85;;;16.50;99.90;;;;;;5041438;28;20222;-73
2022/10/05 11:50:08;;;;;;;1.88;0.90;;;16.50;99.90;;;;;;5044825;28;20037;-72
2022/10/05 11:53:00;;;;;;;3.42;1.30;;;16.50;99.90;;;;;;5037164;28;20121;-72
2022/10/05 11:55:32;;;;;;;3.35;1.33;;;16.40;99.90;;;;;;5040080;28;20056;-72
2022/10/05 11:58:06;;;;;;;2.28;1.35;;;16.50;99.90;;;;;;5036390;28;20648;-73
2022/10/05 12:00:57;;;;;;;2.75;1.00;;;16.50;99.90;;;;;;5035986;28;20539;-73
2022/10/05 12:03:37;;;;;;;1.98;1.20;;;16.40;99.90;;;;;;5040135;28;20556;-72
2022/10/05 12:06:39;;;;;;;2.22;1.20;;;16.40;99.90;;;;;;5028697;28;20068;-72
2022/10/05 12:09:24;;;;;;;2.15;1.08;;;16.40;99.90;;;;;;5033424;28;20065;-71
2022/10/05 12:11:51;;;;;;;2.28;1.23;;;16.40;99.90;;;;;;5032601;28;20083;-73
2022/10/05 12:14:23;;;;;;;2.88;1.13;;;16.40;99.90;;;;;;5040404;28;20049;-73
2022/10/05 12:16:51;;;;;;;2.55;1.48;;;16.40;99.90;;;;;;5036452;28;20441;-73
2022/10/05 12:19:35;;;;;;;2.13;1.30;;;16.40;99.90;;;;;;5035551;28;20087;-73
2022/10/05 12:22:20;;;;;;;1.88;1.15;;;16.40;99.90;;;;;;5034252;28;20433;-73
2022/10/05 12:25:24;;;;;;;2.40;1.65;;;16.40;99.90;;;;;;5045998;28;20091;-74
2022/10/05 12:27:57;;;;;;;3.25;1.27;;;16.40;99.90;;;;;;5045124;28;20147;-73
2022/10/05 12:30:38;;;;;;;2.13;1.30;;;16.50;99.90;;;;;;5043780;28;20044;-74
2022/10/05 12:33:12;;;;;;;3.72;1.20;;;16.50;99.90;;;;;;5039509;28;20037;-73
2022/10/05 12:36:02;;;;;;;3.13;1.30;;;16.50;99.90;;;;;;5042845;28;20080;-72
2022/10/05 12:38:48;;;;;;;2.20;1.45;;;16.50;99.90;;;;;;5044618;28;20102;-73
2022/10/05 12:41:30;;;;;;;3.22;1.73;;;16.50;99.90;;;;;;5022556;28;20049;-73
2022/10/05 12:44:31;;;;;;;2.45;1.42;;;16.50;99.90;;;;;;5042926;28;20060;-72
2022/10/05 12:47:23;;;;;;;2.83;1.70;;;16.50;99.90;;;;;;5042685;28;20531;-73
2022/10/05 12:50:18;;;;;;;2.30;1.70;;;16.50;99.90;;;;;;5043209;28;20122;-73
2022/10/05 12:52:59;;;;;;;3.22;1.70;;;16.50;99.90;;;;;;5038338;28;20045;-72
2022/10/05 12:55:32;;;;;;;3.53;2.08;;;16.50;99.90;;;;;;5041135;28;20402;-73
2022/10/05 12:58:16;;;;;;;3.95;2.05;;;16.50;99.90;;;;;;5036379;28;20052;-73
2022/10/05 13:01:08;;;;;;;2.33;1.52;;;16.50;99.90;;;;;;5042607;28;20041;-73
2022/10/05 13:03:38;;;;;;;3.60;1.65;;;16.50;99.90;;;;;;5038045;28;20510;-73
2022/10/05 13:06:40;;;;;;;3.22;1.38;;;16.50;99.90;;;;;;5043890;28;20062;-73
2022/10/05 13:09:15;;;;;;;2.28;1.30;;;16.50;99.90;;;;;;5032686;28;20056;-72
2022/10/05 13:11:51;;;;;;;2.55;1.50;;;16.50;99.90;;;;;;5030811;28;20130;-72
2022/10/05 13:14:35;;;;;;;5.93;2.10;;;16.60;99.90;;;;;;5044543;28;20219;-72
2022/10/05 13:17:12;;;;;;;2.65;1.58;;;16.60;99.90;;;;;;5042500;28;20511;-73
2022/10/05 13:19:57;;;;;;;4.70;1.58;;;16.60;99.90;;;;;;5043280;28;20288;-73
2022/10/05 13:22:29;;;;;;;3.17;1.77;;;16.70;99.90;;;;;;5047687;28;20037;-74
2022/10/05 13:25:25;;;;;;;3.83;1.95;;;16.70;99.90;;;;;;5046859;28;20036;-73
2022/10/05 13:28:13;;;;;;;3.72;2.00;;;16.70;99.90;;;;;;5044271;28;20072;-73
2022/10/05 13:30:48;;;;;;;4.20;1.88;;;16.70;99.90;;;;;;5038316;28;20077;-71
2022/10/05 13:33:37;;;;;;;2.22;1.58;;;16.80;99.90;;;;;;5048237;28;20406;-72
2022/10/05 13:36:14;;;;;;;4.63;2.10;;;16.80;99.90;;;;;;5040185;28;20064;-72
2022/10/05 13:38:59;;;;;;;2.20;1.75;;;16.80;99.90;;;;;;5033958;28;20049;-73
2022/10/05 13:41:48;;;;;;;4.28;1.98;;;16.90;99.90;;;;;;5040767;28;20163;-73
2022/10/05 13:44:48;;;;;;;3.25;2.05;;;16.90;99.90;;;;;;5041800;28;20474;-72
2022/10/05 13:47:29;;;;;;;3.50;2.00;;;16.90;99.90;;;;;;5035545;28;20431;-72
2022/10/05 13:50:16;;;;;;;5.05;2.15;;;17.00;99.90;;;;;;5038965;28;20451;-73
2022/10/05 13:52:51;;;;;;;4.80;1.75;;;17.10;99.90;;;;;;5047193;28;20044;-73
2022/10/05 13:55:42;;;;;;;4.65;1.80;;;17.10;99.90;;;;;;5042212;28;20227;-73
2022/10/05 13:58:19;;;;;;;2.67;1.63;;;17.10;99.90;;;;;;5041284;28;20037;-72
2022/10/05 14:00:50;;;;;;;3.65;1.52;;;17.10;99.90;;;;;;5043428;28;20045;-72
2022/10/05 14:03:32;;;;;;;2.90;1.83;;;17.10;99.90;;;;;;5043200;28;20098;-72
2022/10/05 14:06:00;;;;;;;2.97;1.70;;;17.10;99.90;;;;;;5033999;28;20044;-72
2022/10/05 14:08:34;;;;;;;4.10;1.90;;;17.10;99.90;;;;;;5038121;28;20492;-72
2022/10/05 14:11:22;;;;;;;2.80;1.83;;;17.00;99.90;;;;;;5038512;28;20041;-72
2022/10/05 14:13:48;;;;;;;2.58;1.55;;;17.00;99.90;;;;;;5037241;28;20049;-75
2022/10/05 14:16:23;;;;;;;5.38;2.00;;;17.00;99.90;;;;;;5026483;28;20095;-72